Time;durP1;ratioP1;P1;durP2;ratioP2;P2;SDS_P1;SDS_P2;PMS_P1;PMS_P2;Temp;Humidity;BMP_temperature;BMP_pressure;BME280_temperature;BME280_humidity;BME280_pressure;Samples;Min_cycle;Max_cycle;Signal;HPM_P1;HPM_P2
2022/07/18 00:00:03;;;;;;;;;;;24.90;46.90;;;;;;5064457;28;19935;-62
2022/07/18 00:02:29;;;;;;;;;;;24.90;46.90;;;;;;5063332;28;19916;-63
2022/07/18 00:04:54;;;;;;;;;;;24.90;46.90;;;;;;5067745;28;19939;-63
2022/07/18 00:07:20;;;;;;;;;;;24.90;46.90;;;;;;5068970;28;19919;-63
2022/07/18 00:09:45;;;;;;;;;;;24.90;47.00;;;;;;5068395;28;19913;-63
2022/07/18 00:12:11;;;;;;;;;;;24.90;46.90;;;;;;5068989;28;20366;-63
2022/07/18 00:14:36;;;;;;;;;;;24.90;46.90;;;;;;5070605;28;19916;-62
2022/07/18 00:17:02;;;;;;;;;;;24.90;46.90;;;;;;5064323;28;19939;-63
2022/07/18 00:19:27;;;;;;;;;;;25.00;46.90;;;;;;5081379;28;20253;-63
2022/07/18 00:21:53;;;;;;;;;;;25.00;46.90;;;;;;5064975;28;19920;-63
2022/07/18 00:24:18;;;;;;;;;;;25.00;46.90;;;;;;5069903;28;19912;-63
2022/07/18 00:26:44;;;;;;;;;;;25.00;46.90;;;;;;5067524;28;19982;-63
2022/07/18 00:29:09;;;;;;;;;;;25.00;47.00;;;;;;5061070;28;19916;-63
2022/07/18 00:31:35;;;;;;;;;;;25.00;47.10;;;;;;5062796;28;19921;-63
2022/07/18 00:34:00;;;;;;;;;;;24.90;47.10;;;;;;5063840;28;19912;-63
2022/07/18 00:36:26;;;;;;;;;;;24.90;47.10;;;;;;5069093;28;20324;-63
2022/07/18 00:38:52;;;;;;;;;;;24.90;47.20;;;;;;5068943;28;19978;-63
2022/07/18 00:41:17;;;;;;;;;;;24.90;47.20;;;;;;5069215;28;19913;-63
2022/07/18 00:43:43;;;;;;;;;;;24.90;47.20;;;;;;5068948;28;19988;-63
2022/07/18 00:46:08;;;;;;;;;;;24.90;47.40;;;;;;5065883;28;19913;-62
2022/07/18 00:48:33;;;;;;;;;;;24.90;47.40;;;;;;5069484;28;19920;-63
2022/07/18 00:50:59;;;;;;;;;;;24.90;47.40;;;;;;5069200;28;19920;-62
2022/07/18 00:53:24;;;;;;;;;;;24.90;47.50;;;;;;5070002;28;19924;-63
2022/07/18 00:55:50;;;;;;;;;;;24.80;47.40;;;;;;5066042;28;20288;-63
2022/07/18 00:58:15;;;;;;;;;;;24.90;47.50;;;;;;5062796;28;20334;-63
2022/07/18 01:03:25;;;;;;;;;;;24.90;47.60;;;;;;5069811;28;19923;-63
2022/07/18 01:05:50;;;;;;;;;;;24.80;47.60;;;;;;5068441;28;19913;-63
2022/07/18 01:08:16;;;;;;;;;;;24.80;47.70;;;;;;5069234;28;19912;-63
2022/07/18 01:10:41;;;;;;;;;;;24.80;47.70;;;;;;5064726;28;19928;-63
2022/07/18 01:13:06;;;;;;;;;;;24.80;47.80;;;;;;5068932;28;19927;-63
2022/07/18 01:15:32;;;;;;;;;;;24.90;47.90;;;;;;5067693;28;19958;-63
2022/07/18 01:17:57;;;;;;;;;;;24.80;47.90;;;;;;5063812;28;20366;-63
2022/07/18 01:20:26;;;;;;;;;;;24.90;48.00;;;;;;5057619;28;19962;-63
2022/07/18 01:22:52;;;;;;;;;;;24.80;47.90;;;;;;5062886;28;19913;-63
2022/07/18 01:25:17;;;;;;;;;;;24.80;48.10;;;;;;5064603;28;20454;-63
2022/07/18 01:27:42;;;;;;;;;;;24.80;48.20;;;;;;5062191;28;20399;-63
2022/07/18 01:30:08;;;;;;;;;;;24.70;48.20;;;;;;5065452;28;19988;-63
2022/07/18 01:32:33;;;;;;;;;;;24.70;48.30;;;;;;5067115;28;19913;-63
2022/07/18 01:34:59;;;;;;;;;;;24.80;48.40;;;;;;5064088;28;19917;-63
2022/07/18 01:37:24;;;;;;;;;;;24.70;48.30;;;;;;5070384;28;19924;-63
2022/07/18 01:39:50;;;;;;;;;;;24.70;48.30;;;;;;5065891;28;20501;-63
2022/07/18 01:42:15;;;;;;;;;;;24.70;48.50;;;;;;5072442;28;20303;-63
2022/07/18 01:44:41;;;;;;;;;;;24.70;48.30;;;;;;5072389;28;19916;-63
2022/07/18 01:47:07;;;;;;;;;;;24.70;48.70;;;;;;5090804;28;19908;-63
2022/07/18 01:49:32;;;;;;;;;;;24.70;48.60;;;;;;5070769;28;19919;-63
2022/07/18 01:51:58;;;;;;;;;;;24.70;48.70;;;;;;5069862;28;19916;-63
2022/07/18 01:54:24;;;;;;;;;;;24.70;48.30;;;;;;5071211;28;19912;-63
2022/07/18 01:56:49;;;;;;;;;;;24.70;48.60;;;;;;5071069;28;20665;-63
2022/07/18 01:59:15;;;;;;;;;;;24.70;48.50;;;;;;5072107;28;19927;-63
2022/07/18 02:01:40;;;;;;;;;;;24.70;48.70;;;;;;5069199;28;19913;-63
2022/07/18 02:04:06;;;;;;;;;;;24.70;48.50;;;;;;5070477;28;19919;-63
2022/07/18 02:06:31;;;;;;;;;;;24.70;48.30;;;;;;5062236;28;19912;-62
2022/07/18 02:08:57;;;;;;;;;;;24.70;48.90;;;;;;5070001;28;19927;-62
2022/07/18 02:11:22;;;;;;;;;;;24.60;49.00;;;;;;5067447;28;19924;-63
2022/07/18 02:13:48;;;;;;;;;;;24.60;49.10;;;;;;5072485;28;19912;-63
2022/07/18 02:16:13;;;;;;;;;;;24.50;49.10;;;;;;5070934;28;20352;-63
2022/07/18 02:18:38;;;;;;;;;;;24.60;49.30;;;;;;5071344;28;20045;-63
2022/07/18 02:21:04;;;;;;;;;;;24.50;49.10;;;;;;5068800;28;19935;-63
2022/07/18 02:23:29;;;;;;;;;;;24.50;49.10;;;;;;5069516;28;20024;-63
2022/07/18 02:25:55;;;;;;;;;;;24.50;49.20;;;;;;5070109;28;19927;-63
2022/07/18 02:28:21;;;;;;;;;;;24.50;49.00;;;;;;5069798;28;19913;-63
2022/07/18 02:30:48;;;;;;;;;;;24.50;49.20;;;;;;5072720;28;19913;-63
2022/07/18 02:33:13;;;;;;;;;;;24.50;49.20;;;;;;5071559;28;19948;-63
2022/07/18 02:35:39;;;;;;;;;;;24.50;49.20;;;;;;5066739;28;20552;-63
2022/07/18 02:38:04;;;;;;;;;;;24.50;49.20;;;;;;5073108;28;19920;-62
2022/07/18 02:40:29;;;;;;;;;;;24.50;49.20;;;;;;5072080;28;19913;-63
2022/07/18 02:42:55;;;;;;;;;;;24.50;49.00;;;;;;5070926;28;19999;-63
2022/07/18 02:45:20;;;;;;;;;;;24.50;48.90;;;;;;5068989;28;19938;-63
2022/07/18 02:47:46;;;;;;;;;;;24.50;49.00;;;;;;5072291;28;19962;-63
2022/07/18 02:50:11;;;;;;;;;;;24.50;49.00;;;;;;5067437;28;19915;-63
2022/07/18 02:52:38;;;;;;;;;;;24.50;49.10;;;;;;5059455;28;19921;-62
2022/07/18 02:55:03;;;;;;;;;;;24.50;49.00;;;;;;5067760;28;20008;-63
2022/07/18 02:57:29;;;;;;;;;;;24.50;49.10;;;;;;5071580;28;20032;-63
2022/07/18 02:59:54;;;;;;;;;;;24.50;49.20;;;;;;5070272;28;20128;-63
2022/07/18 03:02:20;;;;;;;;;;;24.50;49.30;;;;;;5069902;28;19976;-63
2022/07/18 03:04:45;;;;;;;;;;;24.40;49.20;;;;;;5070029;28;19947;-63
2022/07/18 03:07:11;;;;;;;;;;;24.40;49.20;;;;;;5072108;28;19909;-63
2022/07/18 03:09:36;;;;;;;;;;;24.40;49.30;;;;;;5072352;28;19916;-63
2022/07/18 03:12:02;;;;;;;;;;;24.40;49.20;;;;;;5071520;28;19939;-63
2022/07/18 03:14:27;;;;;;;;;;;24.40;49.30;;;;;;5067528;28;20390;-63
2022/07/18 03:16:53;;;;;;;;;;;24.40;49.30;;;;;;5071605;28;20545;-63
2022/07/18 03:19:18;;;;;;;;;;;24.40;49.30;;;;;;5068544;28;19912;-63
2022/07/18 03:21:43;;;;;;;;;;;24.40;49.30;;;;;;5068529;28;19913;-63
2022/07/18 03:24:10;;;;;;;;;;;24.40;49.40;;;;;;5071480;28;20007;-62
2022/07/18 03:26:37;;;;;;;;;;;24.40;49.20;;;;;;5067518;28;19978;-63
2022/07/18 03:29:02;;;;;;;;;;;24.40;49.30;;;;;;5066929;28;19956;-63
2022/07/18 03:31:28;;;;;;;;;;;24.40;49.50;;;;;;5064452;28;19951;-63
2022/07/18 03:33:53;;;;;;;;;;;24.40;49.40;;;;;;5061217;28;19917;-62
2022/07/18 03:36:18;;;;;;;;;;;24.40;49.30;;;;;;5079533;28;19913;-62
2022/07/18 03:38:44;;;;;;;;;;;24.40;49.40;;;;;;5066562;28;19917;-63
2022/07/18 03:41:10;;;;;;;;;;;24.40;49.10;;;;;;5063817;28;19917;-62
2022/07/18 03:43:36;;;;;;;;;;;24.40;49.50;;;;;;5068900;28;19950;-63
2022/07/18 03:46:01;;;;;;;;;;;24.40;49.50;;;;;;5071758;28;19912;-63
2022/07/18 03:48:27;;;;;;;;;;;24.40;49.30;;;;;;5072165;28;19981;-62
2022/07/18 03:50:52;;;;;;;;;;;24.40;49.30;;;;;;5068742;28;19923;-63
2022/07/18 03:53:18;;;;;;;;;;;24.40;49.50;;;;;;5067979;28;19927;-63
2022/07/18 03:55:43;;;;;;;;;;;24.30;49.50;;;;;;5069811;28;19921;-62
2022/07/18 03:58:08;;;;;;;;;;;24.30;49.60;;;;;;5065597;28;19916;-63
2022/07/18 04:00:34;;;;;;;;;;;24.30;49.60;;;;;;5064768;28;19920;-63
2022/07/18 04:03:00;;;;;;;;;;;24.30;49.60;;;;;;5069936;28;20014;-63
2022/07/18 04:05:25;;;;;;;;;;;24.30;49.60;;;;;;5068809;28;19969;-63
2022/07/18 04:07:50;;;;;;;;;;;24.30;49.50;;;;;;5069712;28;19912;-63
2022/07/18 04:10:16;;;;;;;;;;;24.30;50.30;;;;;;5068732;28;19916;-63
2022/07/18 04:12:48;;;;;;;;;;;24.30;49.50;;;;;;5070187;28;19920;-63
2022/07/18 04:15:14;;;;;;;;;;;24.30;49.50;;;;;;5068248;28;19920;-63
2022/07/18 04:17:40;;;;;;;;;;;24.40;49.50;;;;;;5063779;28;19920;-63
2022/07/18 04:20:05;;;;;;;;;;;24.30;49.60;;;;;;5067504;28;20288;-63
2022/07/18 04:22:31;;;;;;;;;;;24.30;49.70;;;;;;5068790;28;19935;-63
2022/07/18 04:24:56;;;;;;;;;;;24.20;49.70;;;;;;5068535;28;19973;-61
2022/07/18 04:27:22;;;;;;;;;;;24.20;49.70;;;;;;5062371;28;20065;-61
2022/07/18 04:29:47;;;;;;;;;;;24.20;49.70;;;;;;5068632;28;19921;-62
2022/07/18 04:32:12;;;;;;;;;;;24.30;49.70;;;;;;5064085;28;19921;-62
2022/07/18 04:34:38;;;;;;;;;;;24.20;49.70;;;;;;5064967;28;19913;-61
2022/07/18 04:37:03;;;;;;;;;;;24.30;49.70;;;;;;5066976;28;19917;-62
2022/07/18 04:39:29;;;;;;;;;;;24.30;49.60;;;;;;5066497;28;20055;-62
2022/07/18 04:41:55;;;;;;;;;;;24.30;49.60;;;;;;5064947;28;20307;-62
2022/07/18 04:44:20;;;;;;;;;;;24.30;49.70;;;;;;5068642;28;19955;-61
2022/07/18 04:46:46;;;;;;;;;;;24.30;49.40;;;;;;5069157;28;19918;-61
2022/07/18 04:49:11;;;;;;;;;;;24.30;49.70;;;;;;5065828;28;19967;-61
2022/07/18 04:51:36;;;;;;;;;;;24.30;49.80;;;;;;5068344;28;19939;-61
2022/07/18 04:54:02;;;;;;;;;;;24.20;49.70;;;;;;5070219;28;19913;-62
2022/07/18 04:56:27;;;;;;;;;;;24.20;49.70;;;;;;5064946;28;19912;-61
2022/07/18 04:58:53;;;;;;;;;;;24.20;49.70;;;;;;5068332;28;19974;-62
2022/07/18 05:01:18;;;;;;;;;;;24.20;49.80;;;;;;5065780;28;19913;-62
2022/07/18 05:03:44;;;;;;;;;;;24.20;49.90;;;;;;5066602;28;20393;-62
2022/07/18 05:06:09;;;;;;;;;;;24.20;49.90;;;;;;5068275;28;19916;-62
2022/07/18 05:08:34;;;;;;;;;;;24.20;50.00;;;;;;5065405;28;20191;-62
2022/07/18 05:11:00;;;;;;;;;;;24.10;50.00;;;;;;5073842;28;21457;-61
2022/07/18 05:13:25;;;;;;;;;;;24.20;50.10;;;;;;5073200;28;20256;-62
2022/07/18 05:15:51;;;;;;;;;;;24.10;50.00;;;;;;5063009;28;19912;-61
2022/07/18 05:18:16;;;;;;;;;;;24.20;50.00;;;;;;5066791;28;20312;-62
2022/07/18 05:20:42;;;;;;;;;;;24.20;50.00;;;;;;5059272;28;20363;-61
2022/07/18 05:23:08;;;;;;;;;;;24.20;49.80;;;;;;5068397;28;19987;-62
2022/07/18 05:25:34;;;;;;;;;;;24.20;49.80;;;;;;5066423;28;20403;-62
2022/07/18 05:27:59;;;;;;;;;;;24.20;49.90;;;;;;5069776;28;19967;-62
2022/07/18 05:30:25;;;;;;;;;;;24.20;49.90;;;;;;5065429;28;19917;-62
2022/07/18 05:32:51;;;;;;;;;;;24.20;49.80;;;;;;5071267;28;20366;-62
2022/07/18 05:35:17;;;;;;;;;;;24.30;49.70;;;;;;5069396;28;20018;-62
2022/07/18 05:37:43;;;;;;;;;;;24.30;49.50;;;;;;5061221;28;19999;-62
2022/07/18 05:40:09;;;;;;;;;;;24.30;49.50;;;;;;5059425;28;20308;-62
2022/07/18 05:42:34;;;;;;;;;;;24.30;49.50;;;;;;5069445;28;19912;-62
2022/07/18 05:45:00;;;;;;;;;;;24.20;49.50;;;;;;5052055;28;20022;-61
2022/07/18 05:47:25;;;;;;;;;;;24.20;49.50;;;;;;5071245;28;20372;-61
2022/07/18 05:49:51;;;;;;;;;;;24.20;49.40;;;;;;5062109;28;19920;-61
2022/07/18 05:52:16;;;;;;;;;;;24.20;49.40;;;;;;5052882;28;19920;-61
2022/07/18 05:54:42;;;;;;;;;;;24.20;49.50;;;;;;5064856;28;19970;-62
2022/07/18 05:57:07;;;;;;;;;;;24.20;49.60;;;;;;5062486;28;20342;-62
2022/07/18 05:59:33;;;;;;;;;;;24.10;49.60;;;;;;5070845;28;20273;-61
2022/07/18 06:01:58;;;;;;;;;;;24.10;49.60;;;;;;5069494;28;19919;-61
2022/07/18 06:04:24;;;;;;;;;;;24.10;49.70;;;;;;5060647;28;19986;-62
2022/07/18 06:06:49;;;;;;;;;;;24.10;49.60;;;;;;5063850;28;19939;-62
2022/07/18 06:09:16;;;;;;;;;;;24.10;49.50;;;;;;5066160;28;19939;-61
2022/07/18 06:11:41;;;;;;;;;;;24.20;49.30;;;;;;5068944;28;20011;-62
2022/07/18 06:14:07;;;;;;;;;;;24.20;49.30;;;;;;5069368;28;20003;-61
2022/07/18 06:16:32;;;;;;;;;;;24.20;49.30;;;;;;5057781;28;19932;-61
2022/07/18 06:18:57;;;;;;;;;;;24.20;49.40;;;;;;5062266;28;19916;-61
2022/07/18 06:21:23;;;;;;;;;;;24.20;49.40;;;;;;5077513;28;19909;-62
2022/07/18 06:23:48;;;;;;;;;;;24.10;49.40;;;;;;5054363;28;20361;-61
2022/07/18 06:26:14;;;;;;;;;;;24.10;49.40;;;;;;5066431;28;19912;-61
2022/07/18 06:28:39;;;;;;;;;;;24.10;49.50;;;;;;5070283;28;19962;-61
2022/07/18 06:31:05;;;;;;;;;;;24.10;49.50;;;;;;5066421;28;19916;-61
2022/07/18 06:33:30;;;;;;;;;;;24.10;49.40;;;;;;5061173;28;19916;-61
2022/07/18 06:35:56;;;;;;;;;;;24.10;49.50;;;;;;5066414;28;19973;-61
2022/07/18 06:38:21;;;;;;;;;;;24.10;49.60;;;;;;5062363;28;19962;-62
2022/07/18 06:40:47;;;;;;;;;;;24.10;49.60;;;;;;5070759;28;19913;-62
2022/07/18 06:43:18;;;;;;;;;;;24.10;49.70;;;;;;5070339;28;19916;-62
2022/07/18 06:45:47;;;;;;;;;;;24.10;49.70;;;;;;5063002;28;19909;-62
2022/07/18 06:48:13;;;;;;;;;;;24.10;49.80;;;;;;5066112;28;20015;-62
2022/07/18 06:50:39;;;;;;;;;;;24.10;49.80;;;;;;5067191;28;19995;-61
2022/07/18 06:53:04;;;;;;;;;;;24.00;49.70;;;;;;5064367;28;20365;-62
2022/07/18 06:55:30;;;;;;;;;;;24.00;49.80;;;;;;5057466;28;19924;-62
2022/07/18 06:57:55;;;;;;;;;;;24.00;49.70;;;;;;5072951;28;19946;-62
2022/07/18 07:00:20;;;;;;;;;;;24.10;49.70;;;;;;5066319;28;19909;-62
2022/07/18 07:02:47;;;;;;;;;;;24.10;49.80;;;;;;5070225;28;19913;-61
2022/07/18 07:05:13;;;;;;;;;;;24.10;49.70;;;;;;5059428;28;19913;-61
2022/07/18 07:07:39;;;;;;;;;;;24.10;49.70;;;;;;5064138;28;19960;-61
2022/07/18 07:10:04;;;;;;;;;;;24.10;49.70;;;;;;5059913;28;20011;-62
2022/07/18 07:12:30;;;;;;;;;;;24.10;49.70;;;;;;5064903;28;20015;-62
2022/07/18 07:14:55;;;;;;;;;;;24.10;49.90;;;;;;5070105;28;19931;-62
2022/07/18 07:17:21;;;;;;;;;;;24.10;50.00;;;;;;5064488;28;19916;-61
2022/07/18 07:19:46;;;;;;;;;;;24.00;50.10;;;;;;5071073;28;19919;-62
2022/07/18 07:22:11;;;;;;;;;;;24.00;50.20;;;;;;5061259;28;20027;-62
2022/07/18 07:24:38;;;;;;;;;;;24.00;50.30;;;;;;5071124;28;20033;-62
2022/07/18 07:27:03;;;;;;;;;;;23.90;50.40;;;;;;5073224;28;19912;-62
2022/07/18 07:29:29;;;;;;;;;;;24.00;50.40;;;;;;5077814;28;19939;-62
2022/07/18 07:31:55;;;;;;;;;;;24.00;50.40;;;;;;5087090;28;20395;-62
2022/07/18 07:34:20;;;;;;;;;;;24.00;50.50;;;;;;5072726;28;19917;-62
2022/07/18 07:36:46;;;;;;;;;;;24.00;50.50;;;;;;5067538;28;19924;-62
2022/07/18 07:39:11;;;;;;;;;;;24.00;50.50;;;;;;5066787;28;19913;-62
2022/07/18 07:41:36;;;;;;;;;;;24.00;50.60;;;;;;5071784;28;19974;-62
2022/07/18 07:44:02;;;;;;;;;;;24.00;50.50;;;;;;5068816;28;20030;-62
2022/07/18 07:46:27;;;;;;;;;;;24.00;50.50;;;;;;5069541;28;19920;-62
2022/07/18 07:48:53;;;;;;;;;;;24.00;50.40;;;;;;5060651;28;19981;-62
2022/07/18 07:51:18;;;;;;;;;;;24.10;50.40;;;;;;5066261;28;19978;-61
2022/07/18 07:53:44;;;;;;;;;;;24.10;50.30;;;;;;5071570;28;20309;-59
2022/07/18 07:56:10;;;;;;;;;;;24.20;50.20;;;;;;5069780;28;19924;-60
2022/07/18 07:58:36;;;;;;;;;;;24.20;50.00;;;;;;5075880;28;20615;-60
2022/07/18 08:01:01;;;;;;;;;;;24.20;50.00;;;;;;5064042;28;19912;-61
2022/07/18 08:03:27;;;;;;;;;;;24.20;50.00;;;;;;5077811;28;19913;-62
2022/07/18 08:05:52;;;;;;;;;;;24.20;49.90;;;;;;5078372;28;20365;-63
2022/07/18 08:08:18;;;;;;;;;;;24.20;49.90;;;;;;5076601;28;20058;-63
2022/07/18 08:10:43;;;;;;;;;;;24.10;50.10;;;;;;5080425;28;20295;-60
2022/07/18 08:13:09;;;;;;;;;;;24.10;50.10;;;;;;5069932;28;19921;-62
2022/07/18 08:15:35;;;;;;;;;;;24.20;50.20;;;;;;5071832;28;19920;-62
2022/07/18 08:18:01;;;;;;;;;;;24.10;50.10;;;;;;5075669;28;20382;-61
2022/07/18 08:20:26;;;;;;;;;;;24.10;50.20;;;;;;5064383;28;20049;-62
2022/07/18 08:22:52;;;;;;;;;;;24.20;50.00;;;;;;5076326;28;19909;-61
2022/07/18 08:25:18;;;;;;;;;;;24.20;50.10;;;;;;5069968;28;19999;-61
2022/07/18 08:27:44;;;;;;;;;;;24.20;50.00;;;;;;5063106;28;19912;-59
2022/07/18 08:30:09;;;;;;;;;;;24.20;50.10;;;;;;5084605;28;19919;-60
2022/07/18 08:32:35;;;;;;;;;;;24.20;50.00;;;;;;5076642;28;19922;-61
2022/07/18 08:35:00;;;;;;;;;;;24.20;50.20;;;;;;5066885;28;19946;-62
2022/07/18 08:37:25;;;;;;;;;;;24.20;50.20;;;;;;5066600;28;19960;-62
2022/07/18 08:39:51;;;;;;;;;;;24.20;50.10;;;;;;5072832;28;19912;-61
2022/07/18 08:42:16;;;;;;;;;;;24.20;50.00;;;;;;5082230;28;19987;-61
2022/07/18 08:44:42;;;;;;;;;;;24.20;49.80;;;;;;5065088;28;19919;-62
2022/07/18 08:47:07;;;;;;;;;;;24.20;50.60;;;;;;5074482;28;19939;-63
2022/07/18 08:49:33;;;;;;;;;;;24.10;49.90;;;;;;5068121;28;19923;-62
2022/07/18 08:51:58;;;;;;;;;;;24.10;49.90;;;;;;5069101;28;19912;-62
2022/07/18 08:54:24;;;;;;;;;;;24.20;49.90;;;;;;5063969;28;19920;-61
2022/07/18 08:56:49;;;;;;;;;;;24.10;49.80;;;;;;5074889;28;19916;-62
2022/07/18 08:59:15;;;;;;;;;;;24.10;50.00;;;;;;5067201;28;19955;-63
2022/07/18 09:01:40;;;;;;;;;;;24.20;50.00;;;;;;5071771;28;20583;-61
2022/07/18 09:04:15;;;;;;;;;;;24.20;50.00;;;;;;5070820;28;20039;-62
2022/07/18 09:06:44;;;;;;;;;;;24.10;50.10;;;;;;5069881;28;19995;-62
2022/07/18 09:09:10;;;;;;;;;;;24.10;50.10;;;;;;5068530;28;19947;-62
2022/07/18 09:11:35;;;;;;;;;;;24.10;50.00;;;;;;5088911;28;19920;-62
2022/07/18 09:14:01;;;;;;;;;;;24.10;50.10;;;;;;5063131;28;19962;-62
2022/07/18 09:16:27;;;;;;;;;;;24.10;49.90;;;;;;5069149;28;20049;-62
2022/07/18 09:18:52;;;;;;;;;;;24.20;49.80;;;;;;5067524;28;20015;-58
2022/07/18 09:21:18;;;;;;;;;;;24.30;49.60;;;;;;5071625;28;21323;-63
2022/07/18 09:23:45;;;;;;;;;;;24.30;49.60;;;;;;5069300;28;19924;-61
2022/07/18 09:26:11;;;;;;;;;;;24.30;49.40;;;;;;5076627;28;20401;-61
2022/07/18 09:29:02;;;;;;;;;;;24.30;49.50;;;;;;5070816;28;19920;-62
2022/07/18 09:31:28;;;;;;;;;;;24.40;49.60;;;;;;5070273;28;19916;-62
2022/07/18 09:34:00;;;;;;;;;;;24.40;49.30;;;;;;5072906;28;19919;-61
2022/07/18 09:36:26;;;;;;;;;;;24.50;49.50;;;;;;5067866;28;19916;-61
2022/07/18 09:38:54;;;;;;;;;;;24.50;49.40;;;;;;5063963;28;20403;-62
2022/07/18 09:41:30;;;;;;;;;;;24.50;49.10;;;;;;5080392;28;19934;-61
2022/07/18 09:43:58;;;;;;;;;;;24.50;49.10;;;;;;5056212;28;19921;-61
2022/07/18 09:46:24;;;;;;;;;;;24.60;49.20;;;;;;5069541;28;19917;-62
2022/07/18 09:49:07;;;;;;;;;;;24.70;49.00;;;;;;5072772;28;20308;-62
2022/07/18 09:51:32;;;;;;;;;;;24.70;48.30;;;;;;5065805;28;19912;-62
2022/07/18 09:54:00;;;;;;;;;;;24.80;48.40;;;;;;5066646;28;19923;-62
2022/07/18 09:56:25;;;;;;;;;;;24.90;48.30;;;;;;5068884;28;19970;-62
2022/07/18 09:58:51;;;;;;;;;;;24.90;48.10;;;;;;5064100;28;19946;-60
2022/07/18 10:01:16;;;;;;;;;;;25.00;48.10;;;;;;5065438;28;19939;-62
2022/07/18 10:03:42;;;;;;;;;;;25.00;47.80;;;;;;5073568;28;20286;-62
2022/07/18 10:06:07;;;;;;;;;;;25.10;47.80;;;;;;5069337;28;20115;-63
2022/07/18 10:08:33;;;;;;;;;;;25.10;47.70;;;;;;5050121;28;19999;-62
2022/07/18 10:10:59;;;;;;;;;;;25.10;47.50;;;;;;5070309;28;19921;-61
2022/07/18 10:13:28;;;;;;;;;;;25.10;47.60;;;;;;5070838;28;20554;-62
2022/07/18 10:15:53;;;;;;;;;;;25.10;47.70;;;;;;5059352;28;19913;-63
2022/07/18 10:18:20;;;;;;;;;;;25.10;47.60;;;;;;5070237;28;20338;-61
2022/07/18 10:20:57;;;;;;;;;;;25.20;47.70;;;;;;5063432;28;19916;-64
2022/07/18 10:23:32;;;;;;;;;;;25.20;47.60;;;;;;5080127;28;19920;-63
2022/07/18 10:26:07;;;;;;;;;;;25.30;47.60;;;;;;5074850;28;19962;-63
2022/07/18 10:28:33;;;;;;;;;;;25.30;47.60;;;;;;5094736;28;19974;-63
2022/07/18 10:31:14;;;;;;;;;;;25.30;47.60;;;;;;5072325;28;20345;-62
2022/07/18 10:33:41;;;;;;;;;;;25.30;47.50;;;;;;5063896;28;19949;-62
2022/07/18 10:36:07;;;;;;;;;;;25.30;47.50;;;;;;5074851;28;19931;-63
2022/07/18 10:38:33;;;;;;;;;;;25.40;47.40;;;;;;5070055;28;19978;-63
2022/07/18 10:41:24;;;;;;;;;;;25.40;47.40;;;;;;5070054;28;19952;-62
2022/07/18 10:43:50;;;;;;;;;;;25.40;47.30;;;;;;5056794;28;19920;-63
2022/07/18 10:46:15;;;;;;;;;;;25.40;47.30;;;;;;5080344;28;19908;-64
2022/07/18 10:48:41;;;;;;;;;;;25.40;47.40;;;;;;5066093;28;19932;-64
2022/07/18 10:51:12;;;;;;;;;;;25.40;47.40;;;;;;5064534;28;20428;-62
2022/07/18 10:53:53;;;;;;;;;;;25.40;47.40;;;;;;5074779;28;19912;-63
2022/07/18 10:56:19;;;;;;;;;;;25.40;47.30;;;;;;5068175;28;20418;-63
2022/07/18 10:58:44;;;;;;;;;;;25.40;47.30;;;;;;5062578;28;19963;-63
2022/07/18 11:01:13;;;;;;;;;;;25.40;47.40;;;;;;5065296;28;19923;-63
2022/07/18 11:03:38;;;;;;;;;;;25.40;47.30;;;;;;5059384;28;19920;-63
2022/07/18 11:06:04;;;;;;;;;;;25.50;47.30;;;;;;5064568;28;20242;-63
2022/07/18 11:08:31;;;;;;;;;;;25.60;47.20;;;;;;5065416;28;20265;-62
2022/07/18 11:11:01;;;;;;;;;;;25.60;47.20;;;;;;5064115;28;19920;-62
2022/07/18 11:13:32;;;;;;;;;;;25.60;46.90;;;;;;5065603;28;19928;-62
2022/07/18 11:16:00;;;;;;;;;;;25.60;46.90;;;;;;5058463;28;19920;-62
2022/07/18 11:18:25;;;;;;;;;;;25.60;46.80;;;;;;5043655;28;20979;-62
2022/07/18 11:20:51;;;;;;;;;;;25.50;46.60;;;;;;5070275;28;19919;-61
2022/07/18 11:23:16;;;;;;;;;;;25.60;46.60;;;;;;5069625;28;19950;-61
2022/07/18 11:25:42;;;;;;;;;;;25.60;46.30;;;;;;5061572;28;19958;-62
2022/07/18 11:28:08;;;;;;;;;;;25.60;46.50;;;;;;5062239;28;19924;-62
2022/07/18 11:30:34;;;;;;;;;;;25.60;46.40;;;;;;5065114;28;19913;-63
2022/07/18 11:32:59;;;;;;;;;;;25.60;46.20;;;;;;5063651;28;20593;-63
2022/07/18 11:35:25;;;;;;;;;;;25.60;46.20;;;;;;5071467;28;19912;-63
2022/07/18 11:37:51;;;;;;;;;;;25.60;46.00;;;;;;5064210;28;19928;-64
2022/07/18 11:40:17;;;;;;;;;;;25.60;46.90;;;;;;5067914;28;20376;-64
2022/07/18 11:42:42;;;;;;;;;;;25.70;46.20;;;;;;5068312;28;19920;-63
2022/07/18 11:45:09;;;;;;;;;;;25.60;46.00;;;;;;5048216;28;19943;-63
2022/07/18 11:47:47;;;;;;;;;;;25.70;45.90;;;;;;5062624;28;19918;-62
2022/07/18 11:50:13;;;;;;;;;;;25.60;45.80;;;;;;5061655;28;19913;-63
2022/07/18 11:52:38;;;;;;;;;;;25.60;45.70;;;;;;5067809;28;20296;-63
2022/07/18 11:55:04;;;;;;;;;;;25.70;45.80;;;;;;5068989;28;19951;-62
2022/07/18 11:57:30;;;;;;;;;;;25.70;45.20;;;;;;5071305;28;19924;-63
2022/07/18 11:59:55;;;;;;;;;;;25.70;45.20;;;;;;5057321;28;20011;-64
2022/07/18 12:02:21;;;;;;;;;;;25.70;45.30;;;;;;5058567;28;19999;-63
2022/07/18 12:04:46;;;;;;;;;;;25.70;45.30;;;;;;5065574;28;19973;-63
2022/07/18 12:07:13;;;;;;;;;;;25.70;45.30;;;;;;5074664;28;19934;-63
2022/07/18 12:09:38;;;;;;;;;;;25.60;45.20;;;;;;5072008;28;20336;-63
2022/07/18 12:12:10;;;;;;;;;;;25.70;45.30;;;;;;5074614;28;19971;-64
2022/07/18 12:14:37;;;;;;;;;;;25.70;45.10;;;;;;5065835;28;19920;-63
2022/07/18 12:17:03;;;;;;;;;;;25.70;45.00;;;;;;5071587;28;20357;-63
2022/07/18 12:19:37;;;;;;;;;;;25.70;44.80;;;;;;5068726;28;21261;-63
2022/07/18 12:22:02;;;;;;;;;;;25.80;44.80;;;;;;5059570;28;20608;-63
2022/07/18 12:24:32;;;;;;;;;;;25.80;44.80;;;;;;5064307;28;19931;-62
2022/07/18 12:27:07;;;;;;;;;;;25.80;44.60;;;;;;5075814;28;20364;-63
2022/07/18 12:29:52;;;;;;;;;;;25.90;44.60;;;;;;5067631;28;19974;-63
2022/07/18 12:32:17;;;;;;;;;;;25.90;44.60;;;;;;5066663;28;20295;-63
2022/07/18 12:35:02;;;;;;;;;;;25.90;44.70;;;;;;5069866;28;19912;-63
2022/07/18 12:37:29;;;;;;;;;;;26.00;44.70;;;;;;5084938;28;19920;-63
2022/07/18 12:39:58;;;;;;;;;;;26.00;44.60;;;;;;5059223;28;19917;-62
2022/07/18 12:42:34;;;;;;;;;;;26.00;44.50;;;;;;5067258;28;20291;-63
2022/07/18 12:45:00;;;;;;;;;;;26.10;44.50;;;;;;5071383;28;19971;-63
2022/07/18 12:47:25;;;;;;;;;;;26.10;44.50;;;;;;5065633;28;19913;-62
2022/07/18 12:49:51;;;;;;;;;;;26.20;44.40;;;;;;5070173;28;20003;-64
2022/07/18 12:52:17;;;;;;;;;;;26.20;44.30;;;;;;5049247;28;19916;-61
2022/07/18 12:54:42;;;;;;;;;;;26.20;44.30;;;;;;5073175;28;20325;-63
2022/07/18 12:57:08;;;;;;;;;;;26.20;44.10;;;;;;5071223;28;19916;-63
2022/07/18 12:59:33;;;;;;;;;;;26.30;44.20;;;;;;5076817;28;19951;-63
2022/07/18 13:01:59;;;;;;;;;;;26.30;44.20;;;;;;5077842;28;19920;-63
2022/07/18 13:04:24;;;;;;;;;;;26.30;44.20;;;;;;5059510;28;20711;-63
2022/07/18 13:06:50;;;;;;;;;;;26.30;44.20;;;;;;5065905;28;20352;-62
2022/07/18 13:09:15;;;;;;;;;;;26.30;44.10;;;;;;5072185;28;20346;-63
2022/07/18 13:11:43;;;;;;;;;;;26.30;44.10;;;;;;5067894;28;20350;-63
2022/07/18 13:14:08;;;;;;;;;;;26.40;44.10;;;;;;5062195;28;19912;-63
2022/07/18 13:16:34;;;;;;;;;;;26.30;43.90;;;;;;5058914;28;19962;-63
2022/07/18 13:18:59;;;;;;;;;;;26.30;43.90;;;;;;5066764;28;19923;-64
2022/07/18 13:21:24;;;;;;;;;;;26.30;43.90;;;;;;5064600;28;19917;-64
2022/07/18 13:23:50;;;;;;;;;;;26.40;44.00;;;;;;5065393;28;19916;-62
2022/07/18 13:26:15;;;;;;;;;;;26.30;43.90;;;;;;5068609;28;19943;-63
2022/07/18 13:28:41;;;;;;;;;;;26.40;44.00;;;;;;5070294;28;19919;-63
2022/07/18 13:31:07;;;;;;;;;;;26.40;44.00;;;;;;5050888;28;20526;-62
2022/07/18 13:33:35;;;;;;;;;;;26.40;44.00;;;;;;5078134;28;20325;-61
2022/07/18 13:36:00;;;;;;;;;;;26.30;44.00;;;;;;5070611;28;20089;-62
2022/07/18 13:38:26;;;;;;;;;;;26.40;44.00;;;;;;5060923;28;20004;-63
2022/07/18 13:40:52;;;;;;;;;;;26.40;44.00;;;;;;5076058;28;19919;-63
2022/07/18 13:43:17;;;;;;;;;;;26.40;43.70;;;;;;5048783;28;19916;-63
2022/07/18 13:45:43;;;;;;;;;;;26.40;43.90;;;;;;5066048;28;19912;-64
2022/07/18 13:48:08;;;;;;;;;;;26.40;43.80;;;;;;5067104;28;19912;-63
2022/07/18 13:50:34;;;;;;;;;;;26.40;43.90;;;;;;5070705;28;19913;-63
2022/07/18 13:52:59;;;;;;;;;;;26.40;43.70;;;;;;5075425;28;19923;-63
2022/07/18 13:55:25;;;;;;;;;;;26.30;43.60;;;;;;5073309;28;19917;-63
2022/07/18 13:57:51;;;;;;;;;;;26.40;43.60;;;;;;5069938;28;20343;-63
2022/07/18 14:00:18;;;;;;;;;;;26.40;43.70;;;;;;5072609;28;20025;-62
2022/07/18 14:02:43;;;;;;;;;;;26.50;43.70;;;;;;5072970;28;19957;-63
2022/07/18 14:05:09;;;;;;;;;;;26.40;43.50;;;;;;5074417;28;19924;-63
2022/07/18 14:07:34;;;;;;;;;;;26.50;43.50;;;;;;5075904;28;19916;-63
2022/07/18 14:09:59;;;;;;;;;;;26.50;43.40;;;;;;5078764;28;20007;-62
2022/07/18 14:12:25;;;;;;;;;;;26.40;43.50;;;;;;5077291;28;19932;-62